Terminal Aerodrome Forecast
Issued by NWS

Current Version | Previous Version | Text Only | Print | Product List | Glossary On
Versions: 1 2 3 4 5 6 7 8 9 10 11 12 13 14 15 16 17 18 19 20
210
FTUS41 KAKQ 290806 AAA
TAFPHF
TAF AMD
KPHF 290806Z 2908/3006 02007KT P6SM OVC035
      TEMPO 2909/2911 4SM BR
     FM291100 01009KT P6SM SCT020 BKN040
     FM291400 36012KT P6SM SCT070
     FM292300 04007KT P6SM SKC=

USA.gov is the U.S. government's official web portal to all federal, state and local government web resources and services.